sensor_id;sensor_type;location;lat;lon;timestamp;P1;durP1;ratioP1;P2;durP2;ratioP2
4290;SDS011;2159;50.906;7.152;2024-01-25T00:01:23;22.87;;;4.67;;
4290;SDS011;2159;50.906;7.152;2024-01-25T00:03:51;26.80;;;4.90;;
4290;SDS011;2159;50.906;7.152;2024-01-25T00:06:20;29.43;;;5.30;;
4290;SDS011;2159;50.906;7.152;2024-01-25T00:08:48;31.57;;;5.80;;
4290;SDS011;2159;50.906;7.152;2024-01-25T00:11:16;22.73;;;4.97;;
4290;SDS011;2159;50.906;7.152;2024-01-25T00:13:44;30.10;;;6.03;;
4290;SDS011;2159;50.906;7.152;2024-01-25T00:16:11;29.57;;;5.90;;
4290;SDS011;2159;50.906;7.152;2024-01-25T00:18:39;31.13;;;5.83;;
4290;SDS011;2159;50.906;7.152;2024-01-25T00:21:07;37.37;;;6.17;;
4290;SDS011;2159;50.906;7.152;2024-01-25T00:23:35;27.37;;;5.80;;
4290;SDS011;2159;50.906;7.152;2024-01-25T00:26:03;40.13;;;6.00;;
4290;SDS011;2159;50.906;7.152;2024-01-25T00:28:31;21.77;;;5.00;;
4290;SDS011;2159;50.906;7.152;2024-01-25T00:31:00;33.30;;;5.40;;
4290;SDS011;2159;50.906;7.152;2024-01-25T00:33:27;30.17;;;5.47;;
4290;SDS011;2159;50.906;7.152;2024-01-25T00:35:55;30.00;;;5.53;;
4290;SDS011;2159;50.906;7.152;2024-01-25T00:38:23;25.27;;;5.60;;
4290;SDS011;2159;50.906;7.152;2024-01-25T00:40:52;31.13;;;6.17;;
4290;SDS011;2159;50.906;7.152;2024-01-25T00:43:20;32.80;;;5.30;;
4290;SDS011;2159;50.906;7.152;2024-01-25T00:45:48;36.83;;;6.40;;
4290;SDS011;2159;50.906;7.152;2024-01-25T00:48:16;35.30;;;5.93;;
4290;SDS011;2159;50.906;7.152;2024-01-25T00:50:44;31.20;;;6.10;;
4290;SDS011;2159;50.906;7.152;2024-01-25T00:53:12;27.10;;;5.77;;
4290;SDS011;2159;50.906;7.152;2024-01-25T00:55:39;28.00;;;5.23;;
4290;SDS011;2159;50.906;7.152;2024-01-25T00:58:09;36.03;;;6.07;;
4290;SDS011;2159;50.906;7.152;2024-01-25T01:00:37;33.80;;;7.70;;
4290;SDS011;2159;50.906;7.152;2024-01-25T01:03:05;30.07;;;5.90;;
4290;SDS011;2159;50.906;7.152;2024-01-25T01:05:34;28.57;;;5.97;;
4290;SDS011;2159;50.906;7.152;2024-01-25T01:08:02;29.37;;;5.40;;
4290;SDS011;2159;50.906;7.152;2024-01-25T01:10:29;41.73;;;6.10;;
4290;SDS011;2159;50.906;7.152;2024-01-25T01:12:57;31.00;;;5.50;;
4290;SDS011;2159;50.906;7.152;2024-01-25T01:15:26;25.07;;;4.90;;
4290;SDS011;2159;50.906;7.152;2024-01-25T01:17:54;29.57;;;5.67;;
4290;SDS011;2159;50.906;7.152;2024-01-25T01:20:22;32.70;;;5.87;;
4290;SDS011;2159;50.906;7.152;2024-01-25T01:22:50;30.00;;;5.83;;
4290;SDS011;2159;50.906;7.152;2024-01-25T01:25:17;26.93;;;5.40;;
4290;SDS011;2159;50.906;7.152;2024-01-25T01:27:45;38.73;;;5.80;;
4290;SDS011;2159;50.906;7.152;2024-01-25T01:30:13;30.13;;;5.50;;
4290;SDS011;2159;50.906;7.152;2024-01-25T01:32:41;24.03;;;5.77;;
4290;SDS011;2159;50.906;7.152;2024-01-25T01:35:09;32.20;;;6.17;;
4290;SDS011;2159;50.906;7.152;2024-01-25T01:37:37;27.67;;;5.33;;
4290;SDS011;2159;50.906;7.152;2024-01-25T01:40:05;26.90;;;6.03;;
4290;SDS011;2159;50.906;7.152;2024-01-25T01:42:33;28.07;;;5.60;;
4290;SDS011;2159;50.906;7.152;2024-01-25T01:45:00;32.03;;;6.37;;
4290;SDS011;2159;50.906;7.152;2024-01-25T01:47:28;28.60;;;5.70;;
4290;SDS011;2159;50.906;7.152;2024-01-25T01:49:57;35.67;;;5.90;;
4290;SDS011;2159;50.906;7.152;2024-01-25T01:52:25;32.17;;;6.20;;
4290;SDS011;2159;50.906;7.152;2024-01-25T01:54:53;31.30;;;5.93;;
4290;SDS011;2159;50.906;7.152;2024-01-25T01:57:21;29.97;;;5.30;;
4290;SDS011;2159;50.906;7.152;2024-01-25T01:59:48;36.10;;;5.80;;
4290;SDS011;2159;50.906;7.152;2024-01-25T02:02:16;25.00;;;5.57;;
4290;SDS011;2159;50.906;7.152;2024-01-25T02:04:43;31.37;;;5.50;;
4290;SDS011;2159;50.906;7.152;2024-01-25T02:07:13;30.80;;;5.80;;
4290;SDS011;2159;50.906;7.152;2024-01-25T02:09:41;37.10;;;5.77;;
4290;SDS011;2159;50.906;7.152;2024-01-25T02:12:08;29.70;;;5.70;;
4290;SDS011;2159;50.906;7.152;2024-01-25T02:14:36;28.57;;;5.37;;
4290;SDS011;2159;50.906;7.152;2024-01-25T02:17:03;22.30;;;5.23;;
4290;SDS011;2159;50.906;7.152;2024-01-25T02:19:31;23.50;;;5.13;;
4290;SDS011;2159;50.906;7.152;2024-01-25T02:21:59;32.37;;;5.70;;
4290;SDS011;2159;50.906;7.152;2024-01-25T02:24:28;21.80;;;5.27;;
4290;SDS011;2159;50.906;7.152;2024-01-25T02:26:55;28.13;;;5.50;;
4290;SDS011;2159;50.906;7.152;2024-01-25T02:29:23;27.90;;;6.73;;
4290;SDS011;2159;50.906;7.152;2024-01-25T02:31:50;27.47;;;5.80;;
4290;SDS011;2159;50.906;7.152;2024-01-25T02:34:18;31.63;;;5.87;;
4290;SDS011;2159;50.906;7.152;2024-01-25T02:36:45;27.80;;;6.37;;
4290;SDS011;2159;50.906;7.152;2024-01-25T02:39:13;31.87;;;5.13;;
4290;SDS011;2159;50.906;7.152;2024-01-25T02:41:42;23.73;;;5.20;;
4290;SDS011;2159;50.906;7.152;2024-01-25T02:44:11;29.37;;;5.03;;
4290;SDS011;2159;50.906;7.152;2024-01-25T02:46:39;30.90;;;6.47;;
4290;SDS011;2159;50.906;7.152;2024-01-25T02:49:06;33.60;;;5.03;;
4290;SDS011;2159;50.906;7.152;2024-01-25T02:51:34;29.63;;;5.73;;
4290;SDS011;2159;50.906;7.152;2024-01-25T02:54:01;31.13;;;5.17;;
4290;SDS011;2159;50.906;7.152;2024-01-25T02:56:29;27.87;;;5.60;;
4290;SDS011;2159;50.906;7.152;2024-01-25T02:59:02;31.80;;;5.93;;
4290;SDS011;2159;50.906;7.152;2024-01-25T03:01:36;23.87;;;5.30;;
4290;SDS011;2159;50.906;7.152;2024-01-25T03:04:04;26.87;;;5.23;;
4290;SDS011;2159;50.906;7.152;2024-01-25T03:06:32;33.37;;;5.70;;
4290;SDS011;2159;50.906;7.152;2024-01-25T03:08:59;24.17;;;5.37;;
4290;SDS011;2159;50.906;7.152;2024-01-25T03:11:27;37.43;;;5.70;;
4290;SDS011;2159;50.906;7.152;2024-01-25T03:13:54;28.20;;;6.33;;
4290;SDS011;2159;50.906;7.152;2024-01-25T03:16:23;30.47;;;5.90;;
4290;SDS011;2159;50.906;7.152;2024-01-25T03:18:51;22.47;;;5.70;;
4290;SDS011;2159;50.906;7.152;2024-01-25T03:21:17;26.27;;;5.20;;
4290;SDS011;2159;50.906;7.152;2024-01-25T03:23:45;29.77;;;5.77;;
4290;SDS011;2159;50.906;7.152;2024-01-25T03:26:12;29.80;;;5.87;;
4290;SDS011;2159;50.906;7.152;2024-01-25T03:28:40;26.47;;;5.13;;
4290;SDS011;2159;50.906;7.152;2024-01-25T03:31:07;36.60;;;6.67;;
4290;SDS011;2159;50.906;7.152;2024-01-25T03:33:36;24.80;;;4.90;;
4290;SDS011;2159;50.906;7.152;2024-01-25T03:36:04;34.13;;;6.27;;
4290;SDS011;2159;50.906;7.152;2024-01-25T03:38:32;33.30;;;6.00;;
4290;SDS011;2159;50.906;7.152;2024-01-25T03:40:59;44.13;;;5.93;;
4290;SDS011;2159;50.906;7.152;2024-01-25T03:43:27;27.10;;;5.97;;
4290;SDS011;2159;50.906;7.152;2024-01-25T03:46:08;21.77;;;5.20;;
4290;SDS011;2159;50.906;7.152;2024-01-25T03:48:37;31.90;;;5.97;;
4290;SDS011;2159;50.906;7.152;2024-01-25T03:51:04;27.50;;;5.70;;
4290;SDS011;2159;50.906;7.152;2024-01-25T03:53:32;31.07;;;5.67;;
4290;SDS011;2159;50.906;7.152;2024-01-25T03:55:59;22.20;;;5.40;;
4290;SDS011;2159;50.906;7.152;2024-01-25T03:58:27;26.13;;;5.50;;
4290;SDS011;2159;50.906;7.152;2024-01-25T04:00:54;34.97;;;6.30;;
4290;SDS011;2159;50.906;7.152;2024-01-25T04:03:22;29.47;;;5.33;;
4290;SDS011;2159;50.906;7.152;2024-01-25T04:05:51;26.63;;;5.60;;
4290;SDS011;2159;50.906;7.152;2024-01-25T04:08:19;28.13;;;5.83;;
4290;SDS011;2159;50.906;7.152;2024-01-25T04:10:46;29.67;;;6.13;;
4290;SDS011;2159;50.906;7.152;2024-01-25T04:13:16;31.97;;;5.47;;
4290;SDS011;2159;50.906;7.152;2024-01-25T04:15:44;33.70;;;6.00;;
4290;SDS011;2159;50.906;7.152;2024-01-25T04:18:12;25.67;;;4.80;;
4290;SDS011;2159;50.906;7.152;2024-01-25T04:20:41;26.63;;;5.60;;
4290;SDS011;2159;50.906;7.152;2024-01-25T04:23:10;31.50;;;6.50;;
4290;SDS011;2159;50.906;7.152;2024-01-25T04:25:37;22.23;;;5.53;;
4290;SDS011;2159;50.906;7.152;2024-01-25T04:28:05;28.90;;;5.20;;
4290;SDS011;2159;50.906;7.152;2024-01-25T04:30:32;22.37;;;5.80;;
4290;SDS011;2159;50.906;7.152;2024-01-25T04:33:00;23.33;;;4.80;;
4290;SDS011;2159;50.906;7.152;2024-01-25T04:35:28;27.67;;;4.80;;
4290;SDS011;2159;50.906;7.152;2024-01-25T04:37:58;33.63;;;5.50;;
4290;SDS011;2159;50.906;7.152;2024-01-25T04:40:27;27.03;;;5.30;;
4290;SDS011;2159;50.906;7.152;2024-01-25T04:42:54;22.40;;;4.77;;
4290;SDS011;2159;50.906;7.152;2024-01-25T04:45:22;22.87;;;5.93;;
4290;SDS011;2159;50.906;7.152;2024-01-25T04:47:49;26.13;;;5.90;;
4290;SDS011;2159;50.906;7.152;2024-01-25T04:50:17;31.63;;;5.33;;
4290;SDS011;2159;50.906;7.152;2024-01-25T04:52:45;23.23;;;5.23;;
4290;SDS011;2159;50.906;7.152;2024-01-25T04:55:12;26.23;;;5.57;;
4290;SDS011;2159;50.906;7.152;2024-01-25T04:57:41;29.10;;;5.13;;
4290;SDS011;2159;50.906;7.152;2024-01-25T05:00:11;27.97;;;5.50;;
4290;SDS011;2159;50.906;7.152;2024-01-25T05:02:38;21.07;;;4.83;;
4290;SDS011;2159;50.906;7.152;2024-01-25T05:05:06;24.17;;;5.10;;
4290;SDS011;2159;50.906;7.152;2024-01-25T05:07:33;24.80;;;5.40;;
4290;SDS011;2159;50.906;7.152;2024-01-25T05:10:01;25.77;;;5.30;;
4290;SDS011;2159;50.906;7.152;2024-01-25T05:12:29;28.77;;;6.10;;
4290;SDS011;2159;50.906;7.152;2024-01-25T05:14:58;27.00;;;5.13;;
4290;SDS011;2159;50.906;7.152;2024-01-25T05:17:26;22.37;;;5.07;;
4290;SDS011;2159;50.906;7.152;2024-01-25T05:19:53;21.87;;;5.20;;
4290;SDS011;2159;50.906;7.152;2024-01-25T05:22:21;24.83;;;5.10;;
4290;SDS011;2159;50.906;7.152;2024-01-25T05:24:49;26.40;;;4.50;;
4290;SDS011;2159;50.906;7.152;2024-01-25T05:27:17;17.00;;;4.07;;
4290;SDS011;2159;50.906;7.152;2024-01-25T05:29:44;19.10;;;4.40;;
4290;SDS011;2159;50.906;7.152;2024-01-25T05:32:13;20.37;;;5.03;;
4290;SDS011;2159;50.906;7.152;2024-01-25T05:34:41;30.17;;;4.60;;
4290;SDS011;2159;50.906;7.152;2024-01-25T05:37:08;18.40;;;3.77;;
4290;SDS011;2159;50.906;7.152;2024-01-25T05:39:36;22.60;;;5.63;;
4290;SDS011;2159;50.906;7.152;2024-01-25T05:42:04;27.27;;;5.03;;
4290;SDS011;2159;50.906;7.152;2024-01-25T05:44:31;27.80;;;4.90;;
4290;SDS011;2159;50.906;7.152;2024-01-25T05:46:59;30.10;;;5.10;;
4290;SDS011;2159;50.906;7.152;2024-01-25T05:49:28;30.40;;;5.57;;
4290;SDS011;2159;50.906;7.152;2024-01-25T05:51:56;21.07;;;4.57;;
4290;SDS011;2159;50.906;7.152;2024-01-25T05:54:24;24.00;;;5.17;;
4290;SDS011;2159;50.906;7.152;2024-01-25T05:56:51;25.70;;;5.23;;
4290;SDS011;2159;50.906;7.152;2024-01-25T05:59:19;24.63;;;4.60;;
4290;SDS011;2159;50.906;7.152;2024-01-25T06:01:46;25.10;;;5.60;;
4290;SDS011;2159;50.906;7.152;2024-01-25T06:04:14;22.93;;;5.30;;
4290;SDS011;2159;50.906;7.152;2024-01-25T06:06:43;26.27;;;5.50;;
4290;SDS011;2159;50.906;7.152;2024-01-25T06:09:10;26.37;;;5.03;;
4290;SDS011;2159;50.906;7.152;2024-01-25T06:11:39;26.57;;;5.10;;
4290;SDS011;2159;50.906;7.152;2024-01-25T06:14:07;23.47;;;5.10;;
4290;SDS011;2159;50.906;7.152;2024-01-25T06:16:35;24.93;;;4.80;;
4290;SDS011;2159;50.906;7.152;2024-01-25T06:19:03;23.73;;;4.90;;
4290;SDS011;2159;50.906;7.152;2024-01-25T06:21:31;18.30;;;4.97;;
4290;SDS011;2159;50.906;7.152;2024-01-25T06:24:01;19.80;;;4.90;;
4290;SDS011;2159;50.906;7.152;2024-01-25T06:26:29;21.50;;;5.17;;
4290;SDS011;2159;50.906;7.152;2024-01-25T06:28:56;19.60;;;4.57;;
4290;SDS011;2159;50.906;7.152;2024-01-25T06:31:24;27.30;;;5.43;;
4290;SDS011;2159;50.906;7.152;2024-01-25T06:33:52;24.70;;;4.50;;
4290;SDS011;2159;50.906;7.152;2024-01-25T06:36:20;21.80;;;4.83;;
4290;SDS011;2159;50.906;7.152;2024-01-25T06:38:47;30.50;;;5.40;;
4290;SDS011;2159;50.906;7.152;2024-01-25T06:41:17;26.43;;;5.30;;
4290;SDS011;2159;50.906;7.152;2024-01-25T06:43:44;20.03;;;4.30;;
4290;SDS011;2159;50.906;7.152;2024-01-25T06:46:11;18.37;;;4.30;;
4290;SDS011;2159;50.906;7.152;2024-01-25T06:48:39;20.23;;;5.40;;
4290;SDS011;2159;50.906;7.152;2024-01-25T06:51:07;23.23;;;5.50;;
4290;SDS011;2159;50.906;7.152;2024-01-25T06:53:34;28.37;;;5.80;;
4290;SDS011;2159;50.906;7.152;2024-01-25T06:56:02;18.40;;;4.60;;
4290;SDS011;2159;50.906;7.152;2024-01-25T06:58:31;23.37;;;4.70;;
4290;SDS011;2159;50.906;7.152;2024-01-25T07:00:59;19.03;;;4.67;;
4290;SDS011;2159;50.906;7.152;2024-01-25T07:03:27;23.10;;;5.27;;
4290;SDS011;2159;50.906;7.152;2024-01-25T07:05:55;24.50;;;5.20;;
4290;SDS011;2159;50.906;7.152;2024-01-25T07:08:23;16.53;;;4.60;;
4290;SDS011;2159;50.906;7.152;2024-01-25T07:10:51;18.63;;;4.80;;
4290;SDS011;2159;50.906;7.152;2024-01-25T07:13:19;23.23;;;4.80;;
4290;SDS011;2159;50.906;7.152;2024-01-25T07:15:48;30.53;;;5.20;;
4290;SDS011;2159;50.906;7.152;2024-01-25T07:18:17;22.13;;;5.70;;
4290;SDS011;2159;50.906;7.152;2024-01-25T07:20:45;20.17;;;4.70;;
4290;SDS011;2159;50.906;7.152;2024-01-25T07:23:13;27.80;;;5.60;;
4290;SDS011;2159;50.906;7.152;2024-01-25T07:25:40;28.83;;;4.87;;
4290;SDS011;2159;50.906;7.152;2024-01-25T07:28:08;22.00;;;4.60;;
4290;SDS011;2159;50.906;7.152;2024-01-25T07:30:36;26.40;;;4.77;;
4290;SDS011;2159;50.906;7.152;2024-01-25T07:33:05;23.03;;;5.30;;
4290;SDS011;2159;50.906;7.152;2024-01-25T07:35:33;19.57;;;4.90;;
4290;SDS011;2159;50.906;7.152;2024-01-25T07:38:01;17.90;;;5.30;;
4290;SDS011;2159;50.906;7.152;2024-01-25T07:40:29;13.80;;;3.80;;
4290;SDS011;2159;50.906;7.152;2024-01-25T07:42:57;17.40;;;4.13;;
4290;SDS011;2159;50.906;7.152;2024-01-25T07:45:24;21.07;;;5.23;;
4290;SDS011;2159;50.906;7.152;2024-01-25T07:47:52;19.83;;;4.70;;
4290;SDS011;2159;50.906;7.152;2024-01-25T07:50:35;20.30;;;5.60;;
4290;SDS011;2159;50.906;7.152;2024-01-25T07:53:03;16.20;;;4.50;;
4290;SDS011;2159;50.906;7.152;2024-01-25T07:55:30;24.07;;;5.03;;
4290;SDS011;2159;50.906;7.152;2024-01-25T07:57:58;24.80;;;5.03;;
4290;SDS011;2159;50.906;7.152;2024-01-25T08:00:26;21.10;;;4.80;;
4290;SDS011;2159;50.906;7.152;2024-01-25T08:02:53;16.03;;;4.53;;
4290;SDS011;2159;50.906;7.152;2024-01-25T08:05:21;22.47;;;4.90;;
4290;SDS011;2159;50.906;7.152;2024-01-25T08:08:00;22.70;;;4.93;;
4290;SDS011;2159;50.906;7.152;2024-01-25T08:10:28;23.67;;;4.40;;
4290;SDS011;2159;50.906;7.152;2024-01-25T08:12:55;21.67;;;4.67;;
4290;SDS011;2159;50.906;7.152;2024-01-25T08:15:33;21.07;;;4.57;;
4290;SDS011;2159;50.906;7.152;2024-01-25T08:18:00;18.83;;;4.73;;
4290;SDS011;2159;50.906;7.152;2024-01-25T08:20:29;19.23;;;4.70;;
4290;SDS011;2159;50.906;7.152;2024-01-25T08:22:56;16.93;;;4.20;;
4290;SDS011;2159;50.906;7.152;2024-01-25T08:25:26;17.53;;;4.30;;
4290;SDS011;2159;50.906;7.152;2024-01-25T08:27:54;13.67;;;4.43;;
4290;SDS011;2159;50.906;7.152;2024-01-25T08:30:21;21.23;;;5.07;;
4290;SDS011;2159;50.906;7.152;2024-01-25T08:32:49;23.63;;;5.33;;
4290;SDS011;2159;50.906;7.152;2024-01-25T08:35:18;23.97;;;5.40;;
4290;SDS011;2159;50.906;7.152;2024-01-25T08:37:45;19.77;;;5.00;;
4290;SDS011;2159;50.906;7.152;2024-01-25T08:40:13;21.07;;;5.07;;
4290;SDS011;2159;50.906;7.152;2024-01-25T08:42:42;26.23;;;5.37;;
4290;SDS011;2159;50.906;7.152;2024-01-25T08:45:10;21.83;;;5.50;;
4290;SDS011;2159;50.906;7.152;2024-01-25T08:47:41;23.77;;;5.63;;
4290;SDS011;2159;50.906;7.152;2024-01-25T08:50:10;23.23;;;5.33;;
4290;SDS011;2159;50.906;7.152;2024-01-25T08:52:38;40.30;;;7.17;;
4290;SDS011;2159;50.906;7.152;2024-01-25T08:55:07;18.33;;;5.30;;
4290;SDS011;2159;50.906;7.152;2024-01-25T08:57:36;24.37;;;5.17;;
4290;SDS011;2159;50.906;7.152;2024-01-25T09:00:05;20.57;;;5.83;;
4290;SDS011;2159;50.906;7.152;2024-01-25T09:02:36;20.03;;;6.20;;
4290;SDS011;2159;50.906;7.152;2024-01-25T09:05:04;32.70;;;6.17;;
4290;SDS011;2159;50.906;7.152;2024-01-25T09:07:32;23.70;;;6.20;;
4290;SDS011;2159;50.906;7.152;2024-01-25T09:10:00;26.60;;;5.90;;
4290;SDS011;2159;50.906;7.152;2024-01-25T09:12:28;32.60;;;8.50;;
4290;SDS011;2159;50.906;7.152;2024-01-25T09:14:55;32.17;;;9.50;;
4290;SDS011;2159;50.906;7.152;2024-01-25T09:17:24;26.10;;;7.30;;
4290;SDS011;2159;50.906;7.152;2024-01-25T09:19:52;17.97;;;5.23;;
4290;SDS011;2159;50.906;7.152;2024-01-25T09:22:20;35.20;;;7.60;;
4290;SDS011;2159;50.906;7.152;2024-01-25T09:24:48;26.13;;;6.50;;
4290;SDS011;2159;50.906;7.152;2024-01-25T09:27:15;31.53;;;6.93;;
4290;SDS011;2159;50.906;7.152;2024-01-25T09:29:43;34.20;;;6.50;;
4290;SDS011;2159;50.906;7.152;2024-01-25T09:32:11;24.70;;;5.80;;
4290;SDS011;2159;50.906;7.152;2024-01-25T09:34:40;27.17;;;6.80;;
4290;SDS011;2159;50.906;7.152;2024-01-25T09:37:08;36.93;;;8.23;;
4290;SDS011;2159;50.906;7.152;2024-01-25T09:39:35;25.93;;;6.20;;
4290;SDS011;2159;50.906;7.152;2024-01-25T09:42:03;24.97;;;6.50;;
4290;SDS011;2159;50.906;7.152;2024-01-25T09:44:31;33.57;;;8.10;;
4290;SDS011;2159;50.906;7.152;2024-01-25T09:46:59;30.63;;;8.13;;
4290;SDS011;2159;50.906;7.152;2024-01-25T09:49:30;31.57;;;7.80;;
4290;SDS011;2159;50.906;7.152;2024-01-25T09:52:00;35.57;;;9.20;;
4290;SDS011;2159;50.906;7.152;2024-01-25T09:54:30;38.97;;;8.20;;
4290;SDS011;2159;50.906;7.152;2024-01-25T09:56:59;38.00;;;8.40;;
4290;SDS011;2159;50.906;7.152;2024-01-25T09:59:27;42.20;;;8.20;;
4290;SDS011;2159;50.906;7.152;2024-01-25T10:01:55;44.83;;;9.17;;
4290;SDS011;2159;50.906;7.152;2024-01-25T10:04:23;39.47;;;9.20;;
4290;SDS011;2159;50.906;7.152;2024-01-25T10:06:54;39.00;;;8.93;;
4290;SDS011;2159;50.906;7.152;2024-01-25T10:09:23;40.20;;;9.30;;
4290;SDS011;2159;50.906;7.152;2024-01-25T10:11:51;36.90;;;10.33;;
4290;SDS011;2159;50.906;7.152;2024-01-25T10:14:35;35.17;;;9.60;;
4290;SDS011;2159;50.906;7.152;2024-01-25T10:17:04;31.40;;;8.70;;
4290;SDS011;2159;50.906;7.152;2024-01-25T10:19:32;34.80;;;9.20;;
4290;SDS011;2159;50.906;7.152;2024-01-25T10:22:00;29.20;;;8.00;;
4290;SDS011;2159;50.906;7.152;2024-01-25T10:24:30;26.07;;;8.33;;
4290;SDS011;2159;50.906;7.152;2024-01-25T10:26:57;26.23;;;7.93;;
4290;SDS011;2159;50.906;7.152;2024-01-25T10:29:25;28.93;;;8.00;;
4290;SDS011;2159;50.906;7.152;2024-01-25T10:31:53;27.83;;;7.70;;
4290;SDS011;2159;50.906;7.152;2024-01-25T10:34:21;28.00;;;8.47;;
4290;SDS011;2159;50.906;7.152;2024-01-25T10:36:50;33.53;;;8.70;;
4290;SDS011;2159;50.906;7.152;2024-01-25T10:39:19;40.93;;;8.80;;
4290;SDS011;2159;50.906;7.152;2024-01-25T10:41:50;38.33;;;9.27;;
4290;SDS011;2159;50.906;7.152;2024-01-25T10:44:19;37.93;;;9.13;;
4290;SDS011;2159;50.906;7.152;2024-01-25T10:46:47;33.63;;;8.43;;
4290;SDS011;2159;50.906;7.152;2024-01-25T10:49:16;32.50;;;7.87;;
4290;SDS011;2159;50.906;7.152;2024-01-25T10:51:44;31.60;;;8.33;;
4290;SDS011;2159;50.906;7.152;2024-01-25T10:54:12;30.30;;;7.70;;
4290;SDS011;2159;50.906;7.152;2024-01-25T10:56:40;29.23;;;8.43;;
4290;SDS011;2159;50.906;7.152;2024-01-25T10:59:10;36.27;;;7.90;;
4290;SDS011;2159;50.906;7.152;2024-01-25T11:01:37;32.10;;;7.87;;
4290;SDS011;2159;50.906;7.152;2024-01-25T11:04:11;34.43;;;8.50;;
4290;SDS011;2159;50.906;7.152;2024-01-25T11:06:39;31.10;;;8.00;;
4290;SDS011;2159;50.906;7.152;2024-01-25T11:09:07;37.17;;;8.00;;
4290;SDS011;2159;50.906;7.152;2024-01-25T11:11:35;30.67;;;7.90;;
4290;SDS011;2159;50.906;7.152;2024-01-25T11:14:03;29.90;;;8.53;;
4290;SDS011;2159;50.906;7.152;2024-01-25T11:16:32;26.63;;;7.20;;
4290;SDS011;2159;50.906;7.152;2024-01-25T11:19:01;28.30;;;7.40;;
4290;SDS011;2159;50.906;7.152;2024-01-25T11:21:39;34.37;;;8.30;;
4290;SDS011;2159;50.906;7.152;2024-01-25T11:24:11;34.87;;;9.03;;
4290;SDS011;2159;50.906;7.152;2024-01-25T11:26:39;32.37;;;7.80;;
4290;SDS011;2159;50.906;7.152;2024-01-25T11:29:06;33.53;;;7.50;;
4290;SDS011;2159;50.906;7.152;2024-01-25T11:31:36;24.10;;;7.70;;
4290;SDS011;2159;50.906;7.152;2024-01-25T11:34:03;27.40;;;8.10;;
4290;SDS011;2159;50.906;7.152;2024-01-25T11:36:31;27.10;;;7.23;;
4290;SDS011;2159;50.906;7.152;2024-01-25T11:38:58;29.03;;;7.60;;
4290;SDS011;2159;50.906;7.152;2024-01-25T11:41:26;26.13;;;6.97;;
4290;SDS011;2159;50.906;7.152;2024-01-25T11:43:54;30.27;;;7.97;;
4290;SDS011;2159;50.906;7.152;2024-01-25T11:46:21;22.83;;;7.70;;
4290;SDS011;2159;50.906;7.152;2024-01-25T11:48:51;27.73;;;7.60;;
4290;SDS011;2159;50.906;7.152;2024-01-25T11:51:18;31.73;;;7.30;;
4290;SDS011;2159;50.906;7.152;2024-01-25T11:53:46;29.40;;;8.40;;
4290;SDS011;2159;50.906;7.152;2024-01-25T11:56:14;29.63;;;8.30;;
4290;SDS011;2159;50.906;7.152;2024-01-25T11:58:43;26.50;;;7.30;;
4290;SDS011;2159;50.906;7.152;2024-01-25T12:01:12;25.60;;;7.67;;
4290;SDS011;2159;50.906;7.152;2024-01-25T12:03:40;29.00;;;6.97;;
4290;SDS011;2159;50.906;7.152;2024-01-25T12:06:09;23.57;;;6.53;;
4290;SDS011;2159;50.906;7.152;2024-01-25T12:08:37;20.73;;;6.63;;
4290;SDS011;2159;50.906;7.152;2024-01-25T12:11:05;22.63;;;6.80;;
4290;SDS011;2159;50.906;7.152;2024-01-25T12:13:33;20.67;;;6.30;;
4290;SDS011;2159;50.906;7.152;2024-01-25T12:16:02;19.40;;;6.20;;
4290;SDS011;2159;50.906;7.152;2024-01-25T12:18:30;27.70;;;7.13;;
4290;SDS011;2159;50.906;7.152;2024-01-25T12:20:59;22.77;;;5.90;;
4290;SDS011;2159;50.906;7.152;2024-01-25T12:23:32;25.57;;;5.33;;
4290;SDS011;2159;50.906;7.152;2024-01-25T12:26:00;22.03;;;5.57;;
4290;SDS011;2159;50.906;7.152;2024-01-25T12:28:29;20.13;;;5.20;;
4290;SDS011;2159;50.906;7.152;2024-01-25T12:30:57;27.27;;;5.20;;
4290;SDS011;2159;50.906;7.152;2024-01-25T12:33:25;27.03;;;5.37;;
4290;SDS011;2159;50.906;7.152;2024-01-25T12:35:54;22.37;;;5.10;;
4290;SDS011;2159;50.906;7.152;2024-01-25T12:38:22;27.87;;;5.50;;
4290;SDS011;2159;50.906;7.152;2024-01-25T12:40:52;21.57;;;4.70;;
4290;SDS011;2159;50.906;7.152;2024-01-25T12:43:19;23.20;;;5.23;;
4290;SDS011;2159;50.906;7.152;2024-01-25T12:45:49;25.23;;;5.70;;
4290;SDS011;2159;50.906;7.152;2024-01-25T12:48:19;15.50;;;4.70;;
4290;SDS011;2159;50.906;7.152;2024-01-25T12:50:47;21.73;;;5.00;;
4290;SDS011;2159;50.906;7.152;2024-01-25T12:53:16;18.60;;;4.23;;
4290;SDS011;2159;50.906;7.152;2024-01-25T12:55:43;22.10;;;5.10;;
4290;SDS011;2159;50.906;7.152;2024-01-25T12:58:13;15.73;;;4.53;;
4290;SDS011;2159;50.906;7.152;2024-01-25T13:00:40;29.90;;;4.93;;
4290;SDS011;2159;50.906;7.152;2024-01-25T13:03:10;18.83;;;4.70;;
4290;SDS011;2159;50.906;7.152;2024-01-25T13:05:38;19.20;;;4.33;;
4290;SDS011;2159;50.906;7.152;2024-01-25T13:08:06;24.60;;;4.17;;
4290;SDS011;2159;50.906;7.152;2024-01-25T13:10:34;25.23;;;5.10;;
4290;SDS011;2159;50.906;7.152;2024-01-25T13:13:01;19.77;;;4.20;;
4290;SDS011;2159;50.906;7.152;2024-01-25T13:15:31;19.30;;;4.40;;
4290;SDS011;2159;50.906;7.152;2024-01-25T13:17:58;18.20;;;3.90;;
4290;SDS011;2159;50.906;7.152;2024-01-25T13:20:27;23.90;;;4.20;;
4290;SDS011;2159;50.906;7.152;2024-01-25T13:22:55;18.70;;;4.33;;
4290;SDS011;2159;50.906;7.152;2024-01-25T13:25:22;21.80;;;3.77;;
4290;SDS011;2159;50.906;7.152;2024-01-25T13:27:49;18.27;;;4.00;;
4290;SDS011;2159;50.906;7.152;2024-01-25T13:30:18;23.73;;;4.07;;
4290;SDS011;2159;50.906;7.152;2024-01-25T13:32:47;18.23;;;4.00;;
4290;SDS011;2159;50.906;7.152;2024-01-25T13:35:15;19.27;;;3.90;;
4290;SDS011;2159;50.906;7.152;2024-01-25T13:37:43;14.30;;;4.13;;
4290;SDS011;2159;50.906;7.152;2024-01-25T13:40:10;14.73;;;4.10;;
4290;SDS011;2159;50.906;7.152;2024-01-25T13:42:38;17.70;;;4.30;;
4290;SDS011;2159;50.906;7.152;2024-01-25T13:45:06;16.77;;;4.13;;
4290;SDS011;2159;50.906;7.152;2024-01-25T13:47:34;17.80;;;4.50;;
4290;SDS011;2159;50.906;7.152;2024-01-25T13:50:02;18.63;;;3.80;;
4290;SDS011;2159;50.906;7.152;2024-01-25T13:52:30;12.57;;;3.90;;
4290;SDS011;2159;50.906;7.152;2024-01-25T13:54:58;21.10;;;4.53;;
4290;SDS011;2159;50.906;7.152;2024-01-25T13:57:25;18.20;;;4.30;;
4290;SDS011;2159;50.906;7.152;2024-01-25T13:59:53;23.00;;;4.70;;
4290;SDS011;2159;50.906;7.152;2024-01-25T14:02:20;22.13;;;4.20;;
4290;SDS011;2159;50.906;7.152;2024-01-25T14:04:48;17.03;;;3.87;;
4290;SDS011;2159;50.906;7.152;2024-01-25T14:07:18;17.00;;;4.20;;
4290;SDS011;2159;50.906;7.152;2024-01-25T14:09:47;21.70;;;4.40;;
4290;SDS011;2159;50.906;7.152;2024-01-25T14:12:18;26.73;;;4.60;;
4290;SDS011;2159;50.906;7.152;2024-01-25T14:14:46;14.67;;;4.10;;
4290;SDS011;2159;50.906;7.152;2024-01-25T14:17:13;24.30;;;4.90;;
4290;SDS011;2159;50.906;7.152;2024-01-25T14:19:41;24.97;;;4.90;;
4290;SDS011;2159;50.906;7.152;2024-01-25T14:22:08;20.00;;;4.60;;
4290;SDS011;2159;50.906;7.152;2024-01-25T14:24:56;17.57;;;4.57;;
4290;SDS011;2159;50.906;7.152;2024-01-25T14:27:24;15.10;;;3.90;;
4290;SDS011;2159;50.906;7.152;2024-01-25T14:29:51;24.00;;;5.27;;
4290;SDS011;2159;50.906;7.152;2024-01-25T14:32:19;25.53;;;4.73;;
4290;SDS011;2159;50.906;7.152;2024-01-25T14:34:48;16.63;;;4.50;;
4290;SDS011;2159;50.906;7.152;2024-01-25T14:37:16;14.27;;;3.70;;
4290;SDS011;2159;50.906;7.152;2024-01-25T14:39:43;20.13;;;5.03;;
4290;SDS011;2159;50.906;7.152;2024-01-25T14:42:32;19.80;;;4.20;;
4290;SDS011;2159;50.906;7.152;2024-01-25T14:45:00;19.13;;;4.60;;
4290;SDS011;2159;50.906;7.152;2024-01-25T14:47:28;19.80;;;4.30;;
4290;SDS011;2159;50.906;7.152;2024-01-25T14:49:56;16.97;;;4.00;;
4290;SDS011;2159;50.906;7.152;2024-01-25T14:52:24;18.70;;;4.47;;
4290;SDS011;2159;50.906;7.152;2024-01-25T14:54:51;27.50;;;4.93;;
4290;SDS011;2159;50.906;7.152;2024-01-25T14:57:19;23.13;;;4.23;;
4290;SDS011;2159;50.906;7.152;2024-01-25T14:59:48;19.13;;;4.70;;
4290;SDS011;2159;50.906;7.152;2024-01-25T15:02:15;21.90;;;5.80;;
4290;SDS011;2159;50.906;7.152;2024-01-25T15:04:43;24.90;;;7.67;;
4290;SDS011;2159;50.906;7.152;2024-01-25T15:07:10;20.23;;;4.87;;